sensor_id;sensor_type;location;lat;lon;timestamp;P1;durP1;ratioP1;P2;durP2;ratioP2
7104;SDS011;3594;42.152;24.714;2022-10-16T00:01:30;6.82;;;3.78;;
7104;SDS011;3594;42.152;24.714;2022-10-16T00:03:57;5.28;;;3.20;;
7104;SDS011;3594;42.152;24.714;2022-10-16T00:06:23;7.80;;;4.15;;
7104;SDS011;3594;42.152;24.714;2022-10-16T00:08:50;5.07;;;3.43;;
7104;SDS011;3594;42.152;24.714;2022-10-16T00:11:27;6.60;;;3.60;;
7104;SDS011;3594;42.152;24.714;2022-10-16T00:13:55;7.22;;;3.97;;
7104;SDS011;3594;42.152;24.714;2022-10-16T00:16:22;7.53;;;3.70;;
7104;SDS011;3594;42.152;24.714;2022-10-16T00:18:48;8.83;;;4.30;;
7104;SDS011;3594;42.152;24.714;2022-10-16T00:21:15;7.80;;;4.30;;
7104;SDS011;3594;42.152;24.714;2022-10-16T00:23:43;5.03;;;3.70;;
7104;SDS011;3594;42.152;24.714;2022-10-16T00:26:11;4.33;;;3.40;;
7104;SDS011;3594;42.152;24.714;2022-10-16T00:28:38;7.60;;;3.90;;
7104;SDS011;3594;42.152;24.714;2022-10-16T00:31:08;5.07;;;3.67;;
7104;SDS011;3594;42.152;24.714;2022-10-16T00:33:37;5.07;;;3.20;;
7104;SDS011;3594;42.152;24.714;2022-10-16T00:36:05;5.63;;;3.50;;
7104;SDS011;3594;42.152;24.714;2022-10-16T00:38:32;5.90;;;3.90;;
7104;SDS011;3594;42.152;24.714;2022-10-16T00:40:58;5.30;;;3.47;;
7104;SDS011;3594;42.152;24.714;2022-10-16T00:46:13;6.27;;;3.70;;
7104;SDS011;3594;42.152;24.714;2022-10-16T00:48:46;5.07;;;3.60;;
7104;SDS011;3594;42.152;24.714;2022-10-16T00:51:17;8.47;;;3.53;;
7104;SDS011;3594;42.152;24.714;2022-10-16T00:53:46;4.87;;;3.50;;
7104;SDS011;3594;42.152;24.714;2022-10-16T00:56:11;5.93;;;4.13;;
7104;SDS011;3594;42.152;24.714;2022-10-16T00:58:37;7.70;;;4.10;;
7104;SDS011;3594;42.152;24.714;2022-10-16T01:01:02;8.90;;;4.03;;
7104;SDS011;3594;42.152;24.714;2022-10-16T01:03:29;6.63;;;4.07;;
7104;SDS011;3594;42.152;24.714;2022-10-16T01:06:09;7.83;;;4.10;;
7104;SDS011;3594;42.152;24.714;2022-10-16T01:08:47;11.60;;;6.60;;
7104;SDS011;3594;42.152;24.714;2022-10-16T01:11:34;26.00;;;12.67;;
7104;SDS011;3594;42.152;24.714;2022-10-16T01:14:20;21.53;;;11.53;;
7104;SDS011;3594;42.152;24.714;2022-10-16T01:20:03;27.17;;;15.40;;
7104;SDS011;3594;42.152;24.714;2022-10-16T01:28:18;30.67;;;16.47;;
7104;SDS011;3594;42.152;24.714;2022-10-16T01:30:47;24.73;;;12.43;;
7104;SDS011;3594;42.152;24.714;2022-10-16T01:33:21;19.50;;;10.60;;
7104;SDS011;3594;42.152;24.714;2022-10-16T01:35:53;9.87;;;6.13;;
7104;SDS011;3594;42.152;24.714;2022-10-16T01:38:41;10.43;;;5.73;;
7104;SDS011;3594;42.152;24.714;2022-10-16T01:41:13;7.97;;;4.53;;
7104;SDS011;3594;42.152;24.714;2022-10-16T01:43:57;11.23;;;5.50;;
7104;SDS011;3594;42.152;24.714;2022-10-16T01:46:29;9.47;;;5.20;;
7104;SDS011;3594;42.152;24.714;2022-10-16T01:48:56;12.80;;;5.23;;
7104;SDS011;3594;42.152;24.714;2022-10-16T01:51:24;6.30;;;4.37;;
7104;SDS011;3594;42.152;24.714;2022-10-16T01:53:52;7.43;;;4.67;;
7104;SDS011;3594;42.152;24.714;2022-10-16T01:56:21;7.43;;;4.83;;
7104;SDS011;3594;42.152;24.714;2022-10-16T01:58:50;9.70;;;4.73;;
7104;SDS011;3594;42.152;24.714;2022-10-16T02:01:21;10.30;;;5.30;;
7104;SDS011;3594;42.152;24.714;2022-10-16T02:03:51;7.97;;;4.87;;
7104;SDS011;3594;42.152;24.714;2022-10-16T02:06:21;9.80;;;4.67;;
7104;SDS011;3594;42.152;24.714;2022-10-16T02:08:48;6.40;;;4.50;;
7104;SDS011;3594;42.152;24.714;2022-10-16T02:11:13;6.47;;;4.03;;
7104;SDS011;3594;42.152;24.714;2022-10-16T02:13:41;9.60;;;4.77;;
7104;SDS011;3594;42.152;24.714;2022-10-16T02:16:13;8.23;;;4.93;;
7104;SDS011;3594;42.152;24.714;2022-10-16T02:18:40;8.87;;;4.50;;
7104;SDS011;3594;42.152;24.714;2022-10-16T02:26:44;7.33;;;4.20;;
7104;SDS011;3594;42.152;24.714;2022-10-16T02:29:16;9.73;;;4.47;;
7104;SDS011;3594;42.152;24.714;2022-10-16T02:31:46;5.23;;;3.77;;
7104;SDS011;3594;42.152;24.714;2022-10-16T02:34:16;5.90;;;3.83;;
7104;SDS011;3594;42.152;24.714;2022-10-16T02:36:43;8.33;;;3.97;;
7104;SDS011;3594;42.152;24.714;2022-10-16T02:39:10;6.83;;;3.77;;
7104;SDS011;3594;42.152;24.714;2022-10-16T02:41:36;7.10;;;4.07;;
7104;SDS011;3594;42.152;24.714;2022-10-16T02:44:02;8.43;;;4.17;;
7104;SDS011;3594;42.152;24.714;2022-10-16T02:46:28;6.27;;;4.17;;
7104;SDS011;3594;42.152;24.714;2022-10-16T02:48:53;7.03;;;3.90;;
7104;SDS011;3594;42.152;24.714;2022-10-16T02:51:18;5.37;;;4.23;;
7104;SDS011;3594;42.152;24.714;2022-10-16T02:53:44;5.30;;;4.17;;
7104;SDS011;3594;42.152;24.714;2022-10-16T02:56:09;6.93;;;3.90;;
7104;SDS011;3594;42.152;24.714;2022-10-16T02:58:35;6.53;;;4.27;;
7104;SDS011;3594;42.152;24.714;2022-10-16T03:01:00;7.30;;;4.50;;
7104;SDS011;3594;42.152;24.714;2022-10-16T03:03:26;5.97;;;4.07;;
7104;SDS011;3594;42.152;24.714;2022-10-16T03:05:52;9.33;;;4.17;;
7104;SDS011;3594;42.152;24.714;2022-10-16T03:08:17;7.37;;;4.07;;
7104;SDS011;3594;42.152;24.714;2022-10-16T03:10:48;5.70;;;3.83;;
7104;SDS011;3594;42.152;24.714;2022-10-16T03:13:13;4.93;;;3.67;;
7104;SDS011;3594;42.152;24.714;2022-10-16T03:15:39;9.70;;;3.60;;
7104;SDS011;3594;42.152;24.714;2022-10-16T03:18:04;6.77;;;3.50;;
7104;SDS011;3594;42.152;24.714;2022-10-16T03:20:29;7.40;;;4.13;;
7104;SDS011;3594;42.152;24.714;2022-10-16T03:22:55;7.07;;;4.10;;
7104;SDS011;3594;42.152;24.714;2022-10-16T03:25:20;6.00;;;3.87;;
7104;SDS011;3594;42.152;24.714;2022-10-16T03:27:45;6.27;;;4.23;;
7104;SDS011;3594;42.152;24.714;2022-10-16T03:30:11;8.70;;;3.77;;
7104;SDS011;3594;42.152;24.714;2022-10-16T03:32:37;5.70;;;3.73;;
7104;SDS011;3594;42.152;24.714;2022-10-16T03:35:02;7.97;;;4.17;;
7104;SDS011;3594;42.152;24.714;2022-10-16T03:37:28;5.20;;;3.63;;
7104;SDS011;3594;42.152;24.714;2022-10-16T03:39:53;8.87;;;4.67;;
7104;SDS011;3594;42.152;24.714;2022-10-16T03:42:19;5.83;;;3.77;;
7104;SDS011;3594;42.152;24.714;2022-10-16T03:44:44;8.73;;;4.07;;
7104;SDS011;3594;42.152;24.714;2022-10-16T03:47:10;7.03;;;4.10;;
7104;SDS011;3594;42.152;24.714;2022-10-16T03:49:35;5.93;;;4.07;;
7104;SDS011;3594;42.152;24.714;2022-10-16T03:52:00;5.20;;;3.70;;
7104;SDS011;3594;42.152;24.714;2022-10-16T03:54:26;6.00;;;4.17;;
7104;SDS011;3594;42.152;24.714;2022-10-16T03:56:51;5.97;;;3.80;;
7104;SDS011;3594;42.152;24.714;2022-10-16T03:59:17;5.90;;;4.17;;
7104;SDS011;3594;42.152;24.714;2022-10-16T04:01:42;5.20;;;3.77;;
7104;SDS011;3594;42.152;24.714;2022-10-16T04:04:08;12.70;;;4.30;;
7104;SDS011;3594;42.152;24.714;2022-10-16T04:06:33;6.63;;;4.30;;
7104;SDS011;3594;42.152;24.714;2022-10-16T04:08:58;6.43;;;3.73;;
7104;SDS011;3594;42.152;24.714;2022-10-16T04:11:24;8.50;;;3.67;;
7104;SDS011;3594;42.152;24.714;2022-10-16T04:13:49;4.90;;;4.20;;
7104;SDS011;3594;42.152;24.714;2022-10-16T04:16:15;5.43;;;3.67;;
7104;SDS011;3594;42.152;24.714;2022-10-16T04:18:40;5.83;;;4.00;;
7104;SDS011;3594;42.152;24.714;2022-10-16T04:21:05;6.03;;;4.03;;
7104;SDS011;3594;42.152;24.714;2022-10-16T04:23:31;5.63;;;3.80;;
7104;SDS011;3594;42.152;24.714;2022-10-16T04:25:57;6.80;;;4.43;;
7104;SDS011;3594;42.152;24.714;2022-10-16T04:28:23;6.13;;;4.20;;
7104;SDS011;3594;42.152;24.714;2022-10-16T04:30:48;6.57;;;4.80;;
7104;SDS011;3594;42.152;24.714;2022-10-16T04:33:14;4.07;;;3.23;;
7104;SDS011;3594;42.152;24.714;2022-10-16T04:35:39;7.10;;;4.10;;
7104;SDS011;3594;42.152;24.714;2022-10-16T04:38:04;5.57;;;3.30;;
7104;SDS011;3594;42.152;24.714;2022-10-16T04:40:30;7.83;;;3.70;;
7104;SDS011;3594;42.152;24.714;2022-10-16T04:43:00;5.20;;;3.67;;
7104;SDS011;3594;42.152;24.714;2022-10-16T04:45:26;6.13;;;3.40;;
7104;SDS011;3594;42.152;24.714;2022-10-16T04:47:51;6.50;;;4.50;;
7104;SDS011;3594;42.152;24.714;2022-10-16T04:50:17;7.73;;;4.40;;
7104;SDS011;3594;42.152;24.714;2022-10-16T04:52:42;6.50;;;3.47;;
7104;SDS011;3594;42.152;24.714;2022-10-16T04:55:07;6.50;;;3.60;;
7104;SDS011;3594;42.152;24.714;2022-10-16T04:57:35;7.93;;;4.13;;
7104;SDS011;3594;42.152;24.714;2022-10-16T05:00:00;8.43;;;3.60;;
7104;SDS011;3594;42.152;24.714;2022-10-16T05:02:27;8.07;;;3.67;;
7104;SDS011;3594;42.152;24.714;2022-10-16T05:04:59;5.60;;;3.77;;
7104;SDS011;3594;42.152;24.714;2022-10-16T05:07:24;5.17;;;3.73;;
7104;SDS011;3594;42.152;24.714;2022-10-16T05:09:50;6.83;;;4.13;;
7104;SDS011;3594;42.152;24.714;2022-10-16T05:12:15;5.37;;;3.67;;
7104;SDS011;3594;42.152;24.714;2022-10-16T05:14:41;7.40;;;3.77;;
7104;SDS011;3594;42.152;24.714;2022-10-16T05:17:06;6.27;;;4.40;;
7104;SDS011;3594;42.152;24.714;2022-10-16T05:19:32;7.13;;;3.40;;
7104;SDS011;3594;42.152;24.714;2022-10-16T05:21:57;8.67;;;3.53;;
7104;SDS011;3594;42.152;24.714;2022-10-16T05:24:23;4.53;;;3.33;;
7104;SDS011;3594;42.152;24.714;2022-10-16T05:26:49;5.63;;;3.80;;
7104;SDS011;3594;42.152;24.714;2022-10-16T05:29:14;3.97;;;2.90;;
7104;SDS011;3594;42.152;24.714;2022-10-16T05:31:40;8.93;;;4.03;;
7104;SDS011;3594;42.152;24.714;2022-10-16T05:34:05;6.37;;;3.57;;
7104;SDS011;3594;42.152;24.714;2022-10-16T05:36:31;4.93;;;3.33;;
7104;SDS011;3594;42.152;24.714;2022-10-16T05:38:56;5.70;;;3.47;;
7104;SDS011;3594;42.152;24.714;2022-10-16T05:41:21;8.00;;;4.80;;
7104;SDS011;3594;42.152;24.714;2022-10-16T05:43:48;8.63;;;4.77;;
7104;SDS011;3594;42.152;24.714;2022-10-16T05:46:14;8.57;;;4.60;;
7104;SDS011;3594;42.152;24.714;2022-10-16T05:48:40;5.97;;;3.53;;
7104;SDS011;3594;42.152;24.714;2022-10-16T05:51:06;8.60;;;4.57;;
7104;SDS011;3594;42.152;24.714;2022-10-16T05:53:35;7.43;;;3.87;;
7104;SDS011;3594;42.152;24.714;2022-10-16T05:56:01;5.50;;;3.43;;
7104;SDS011;3594;42.152;24.714;2022-10-16T05:58:29;6.20;;;4.00;;
7104;SDS011;3594;42.152;24.714;2022-10-16T06:00:57;8.77;;;4.63;;
7104;SDS011;3594;42.152;24.714;2022-10-16T06:03:24;7.27;;;4.33;;
7104;SDS011;3594;42.152;24.714;2022-10-16T06:05:50;6.40;;;4.50;;
7104;SDS011;3594;42.152;24.714;2022-10-16T06:08:16;10.63;;;4.80;;
7104;SDS011;3594;42.152;24.714;2022-10-16T06:10:42;8.63;;;5.47;;
7104;SDS011;3594;42.152;24.714;2022-10-16T06:13:08;6.57;;;4.17;;
7104;SDS011;3594;42.152;24.714;2022-10-16T06:15:34;8.37;;;5.33;;
7104;SDS011;3594;42.152;24.714;2022-10-16T06:18:00;9.87;;;4.57;;
7104;SDS011;3594;42.152;24.714;2022-10-16T06:20:25;9.77;;;5.17;;
7104;SDS011;3594;42.152;24.714;2022-10-16T06:22:51;14.93;;;5.60;;
7104;SDS011;3594;42.152;24.714;2022-10-16T06:25:16;10.00;;;6.30;;
7104;SDS011;3594;42.152;24.714;2022-10-16T06:27:42;9.27;;;5.37;;
7104;SDS011;3594;42.152;24.714;2022-10-16T06:30:07;10.77;;;5.45;;
7104;SDS011;3594;42.152;24.714;2022-10-16T06:32:33;12.80;;;5.50;;
7104;SDS011;3594;42.152;24.714;2022-10-16T06:34:58;7.73;;;5.00;;
7104;SDS011;3594;42.152;24.714;2022-10-16T06:37:24;6.20;;;4.10;;
7104;SDS011;3594;42.152;24.714;2022-10-16T06:39:50;10.00;;;4.80;;
7104;SDS011;3594;42.152;24.714;2022-10-16T06:42:17;6.13;;;4.43;;
7104;SDS011;3594;42.152;24.714;2022-10-16T06:44:43;7.60;;;3.88;;
7104;SDS011;3594;42.152;24.714;2022-10-16T06:47:08;7.07;;;4.18;;
7104;SDS011;3594;42.152;24.714;2022-10-16T06:49:34;6.47;;;3.90;;
7104;SDS011;3594;42.152;24.714;2022-10-16T06:51:59;7.05;;;3.88;;
7104;SDS011;3594;42.152;24.714;2022-10-16T06:54:25;6.80;;;4.35;;
7104;SDS011;3594;42.152;24.714;2022-10-16T06:56:50;6.20;;;3.53;;
7104;SDS011;3594;42.152;24.714;2022-10-16T06:59:16;6.82;;;4.15;;
7104;SDS011;3594;42.152;24.714;2022-10-16T07:01:41;6.70;;;4.15;;
7104;SDS011;3594;42.152;24.714;2022-10-16T07:04:07;6.35;;;4.18;;
7104;SDS011;3594;42.152;24.714;2022-10-16T07:06:33;8.02;;;4.55;;
7104;SDS011;3594;42.152;24.714;2022-10-16T07:09:00;6.85;;;4.25;;
7104;SDS011;3594;42.152;24.714;2022-10-16T07:11:27;5.28;;;3.97;;
7104;SDS011;3594;42.152;24.714;2022-10-16T07:13:52;7.15;;;4.03;;
7104;SDS011;3594;42.152;24.714;2022-10-16T07:16:19;5.20;;;4.00;;
7104;SDS011;3594;42.152;24.714;2022-10-16T07:18:45;6.50;;;4.53;;
7104;SDS011;3594;42.152;24.714;2022-10-16T07:21:14;11.30;;;4.50;;
7104;SDS011;3594;42.152;24.714;2022-10-16T07:23:44;5.65;;;3.70;;
7104;SDS011;3594;42.152;24.714;2022-10-16T07:26:10;8.73;;;4.40;;
7104;SDS011;3594;42.152;24.714;2022-10-16T07:28:36;7.93;;;4.55;;
7104;SDS011;3594;42.152;24.714;2022-10-16T07:31:03;6.32;;;4.18;;
7104;SDS011;3594;42.152;24.714;2022-10-16T07:33:30;8.23;;;4.20;;
7104;SDS011;3594;42.152;24.714;2022-10-16T07:35:56;7.47;;;4.00;;
7104;SDS011;3594;42.152;24.714;2022-10-16T07:38:22;9.30;;;4.43;;
7104;SDS011;3594;42.152;24.714;2022-10-16T07:40:47;6.82;;;4.63;;
7104;SDS011;3594;42.152;24.714;2022-10-16T07:43:20;6.90;;;4.10;;
7104;SDS011;3594;42.152;24.714;2022-10-16T07:45:48;7.05;;;4.30;;
7104;SDS011;3594;42.152;24.714;2022-10-16T07:48:15;6.45;;;4.57;;
7104;SDS011;3594;42.152;24.714;2022-10-16T07:50:41;8.65;;;5.13;;
7104;SDS011;3594;42.152;24.714;2022-10-16T07:53:07;6.45;;;4.10;;
7104;SDS011;3594;42.152;24.714;2022-10-16T07:55:33;7.75;;;4.95;;
7104;SDS011;3594;42.152;24.714;2022-10-16T07:57:58;5.90;;;4.03;;
7104;SDS011;3594;42.152;24.714;2022-10-16T08:00:24;6.95;;;4.32;;
7104;SDS011;3594;42.152;24.714;2022-10-16T08:02:49;6.88;;;4.00;;
7104;SDS011;3594;42.152;24.714;2022-10-16T08:05:15;8.85;;;4.55;;
7104;SDS011;3594;42.152;24.714;2022-10-16T08:07:42;6.47;;;3.90;;
7104;SDS011;3594;42.152;24.714;2022-10-16T08:10:15;4.97;;;3.72;;
7104;SDS011;3594;42.152;24.714;2022-10-16T08:12:42;5.53;;;4.07;;
7104;SDS011;3594;42.152;24.714;2022-10-16T08:15:08;7.40;;;4.45;;
7104;SDS011;3594;42.152;24.714;2022-10-16T08:17:34;5.97;;;4.15;;
7104;SDS011;3594;42.152;24.714;2022-10-16T08:19:59;6.70;;;3.63;;
7104;SDS011;3594;42.152;24.714;2022-10-16T08:22:25;6.53;;;4.07;;
7104;SDS011;3594;42.152;24.714;2022-10-16T08:24:50;9.27;;;4.40;;
7104;SDS011;3594;42.152;24.714;2022-10-16T08:27:15;5.05;;;3.75;;
7104;SDS011;3594;42.152;24.714;2022-10-16T08:29:41;6.00;;;4.00;;
7104;SDS011;3594;42.152;24.714;2022-10-16T08:32:06;7.03;;;4.38;;
7104;SDS011;3594;42.152;24.714;2022-10-16T08:34:32;8.65;;;4.15;;
7104;SDS011;3594;42.152;24.714;2022-10-16T08:36:57;6.68;;;4.28;;
7104;SDS011;3594;42.152;24.714;2022-10-16T08:39:22;5.90;;;4.13;;
7104;SDS011;3594;42.152;24.714;2022-10-16T08:52:19;5.60;;;3.38;;
7104;SDS011;3594;42.152;24.714;2022-10-16T08:54:45;5.00;;;3.72;;
7104;SDS011;3594;42.152;24.714;2022-10-16T08:57:17;7.25;;;4.25;;
7104;SDS011;3594;42.152;24.714;2022-10-16T08:59:45;6.88;;;3.72;;
7104;SDS011;3594;42.152;24.714;2022-10-16T09:07:20;7.05;;;4.00;;
7104;SDS011;3594;42.152;24.714;2022-10-16T09:23:14;5.38;;;3.72;;
7104;SDS011;3594;42.152;24.714;2022-10-16T09:25:44;5.15;;;3.60;;
7104;SDS011;3594;42.152;24.714;2022-10-16T09:28:12;5.47;;;3.40;;
7104;SDS011;3594;42.152;24.714;2022-10-16T09:30:38;6.13;;;3.70;;
7104;SDS011;3594;42.152;24.714;2022-10-16T09:33:07;3.97;;;3.22;;
7104;SDS011;3594;42.152;24.714;2022-10-16T09:35:39;3.97;;;3.08;;
7104;SDS011;3594;42.152;24.714;2022-10-16T09:38:08;5.50;;;3.47;;
7104;SDS011;3594;42.152;24.714;2022-10-16T09:40:46;8.70;;;3.58;;
7104;SDS011;3594;42.152;24.714;2022-10-16T09:43:25;4.80;;;3.08;;
7104;SDS011;3594;42.152;24.714;2022-10-16T09:45:55;4.47;;;3.25;;
7104;SDS011;3594;42.152;24.714;2022-10-16T09:48:44;4.97;;;2.90;;
7104;SDS011;3594;42.152;24.714;2022-10-16T09:51:31;5.32;;;3.53;;
7104;SDS011;3594;42.152;24.714;2022-10-16T09:54:01;4.82;;;3.17;;
7104;SDS011;3594;42.152;24.714;2022-10-16T09:56:37;5.47;;;3.25;;
7104;SDS011;3594;42.152;24.714;2022-10-16T09:59:13;5.90;;;3.28;;
7104;SDS011;3594;42.152;24.714;2022-10-16T10:01:47;7.55;;;3.83;;
7104;SDS011;3594;42.152;24.714;2022-10-16T10:04:15;5.47;;;3.30;;
7104;SDS011;3594;42.152;24.714;2022-10-16T10:06:49;4.70;;;3.33;;
7104;SDS011;3594;42.152;24.714;2022-10-16T10:09:22;6.85;;;3.50;;
7104;SDS011;3594;42.152;24.714;2022-10-16T10:11:57;6.68;;;3.58;;
7104;SDS011;3594;42.152;24.714;2022-10-16T10:17:12;6.70;;;3.53;;
7104;SDS011;3594;42.152;24.714;2022-10-16T10:19:41;3.88;;;2.88;;
7104;SDS011;3594;42.152;24.714;2022-10-16T10:22:13;4.35;;;2.65;;
7104;SDS011;3594;42.152;24.714;2022-10-16T10:24:43;4.32;;;2.45;;
7104;SDS011;3594;42.152;24.714;2022-10-16T10:27:39;3.38;;;2.60;;
7104;SDS011;3594;42.152;24.714;2022-10-16T10:32:46;4.22;;;2.65;;
7104;SDS011;3594;42.152;24.714;2022-10-16T10:35:35;3.53;;;2.60;;
7104;SDS011;3594;42.152;24.714;2022-10-16T10:43:43;4.60;;;3.00;;
7104;SDS011;3594;42.152;24.714;2022-10-16T10:46:15;3.08;;;2.25;;
7104;SDS011;3594;42.152;24.714;2022-10-16T10:49:46;3.10;;;2.75;;
7104;SDS011;3594;42.152;24.714;2022-10-16T10:55:02;5.32;;;3.10;;
7104;SDS011;3594;42.152;24.714;2022-10-16T11:06:05;4.53;;;2.70;;
7104;SDS011;3594;42.152;24.714;2022-10-16T11:08:38;4.25;;;3.35;;
7104;SDS011;3594;42.152;24.714;2022-10-16T11:11:23;4.63;;;2.70;;
7104;SDS011;3594;42.152;24.714;2022-10-16T11:16:21;4.57;;;2.72;;
7104;SDS011;3594;42.152;24.714;2022-10-16T11:21:21;3.97;;;2.85;;
7104;SDS011;3594;42.152;24.714;2022-10-16T11:26:24;3.60;;;2.83;;
7104;SDS011;3594;42.152;24.714;2022-10-16T11:28:53;4.88;;;3.00;;
7104;SDS011;3594;42.152;24.714;2022-10-16T11:36:53;3.40;;;2.50;;
7104;SDS011;3594;42.152;24.714;2022-10-16T11:39:27;4.45;;;2.72;;
7104;SDS011;3594;42.152;24.714;2022-10-16T11:53:53;3.38;;;2.30;;
7104;SDS011;3594;42.152;24.714;2022-10-16T11:56:27;6.07;;;2.53;;
7104;SDS011;3594;42.152;24.714;2022-10-16T12:01:33;3.50;;;2.35;;
7104;SDS011;3594;42.152;24.714;2022-10-16T12:06:49;6.20;;;2.80;;
7104;SDS011;3594;42.152;24.714;2022-10-16T12:09:30;4.05;;;2.75;;
7104;SDS011;3594;42.152;24.714;2022-10-16T12:11:57;4.63;;;2.85;;
7104;SDS011;3594;42.152;24.714;2022-10-16T12:16:56;6.60;;;2.95;;
7104;SDS011;3594;42.152;24.714;2022-10-16T12:19:27;4.68;;;2.90;;
7104;SDS011;3594;42.152;24.714;2022-10-16T12:22:01;4.85;;;3.10;;
7104;SDS011;3594;42.152;24.714;2022-10-16T12:24:36;3.42;;;2.53;;
7104;SDS011;3594;42.152;24.714;2022-10-16T12:27:05;4.30;;;3.03;;
7104;SDS011;3594;42.152;24.714;2022-10-16T12:32:06;4.50;;;2.95;;
7104;SDS011;3594;42.152;24.714;2022-10-16T12:34:52;4.57;;;3.00;;
7104;SDS011;3594;42.152;24.714;2022-10-16T12:37:21;4.55;;;2.80;;
7104;SDS011;3594;42.152;24.714;2022-10-16T12:39:50;4.10;;;2.70;;
7104;SDS011;3594;42.152;24.714;2022-10-16T12:42:21;3.42;;;2.47;;
7104;SDS011;3594;42.152;24.714;2022-10-16T12:44:53;4.38;;;2.92;;
7104;SDS011;3594;42.152;24.714;2022-10-16T12:47:21;4.30;;;2.50;;
7104;SDS011;3594;42.152;24.714;2022-10-16T12:49:56;3.17;;;2.58;;
7104;SDS011;3594;42.152;24.714;2022-10-16T12:52:26;3.85;;;2.75;;
7104;SDS011;3594;42.152;24.714;2022-10-16T12:55:19;3.97;;;2.90;;
7104;SDS011;3594;42.152;24.714;2022-10-16T13:00:41;6.82;;;3.42;;
7104;SDS011;3594;42.152;24.714;2022-10-16T13:27:13;5.20;;;3.30;;
7104;SDS011;3594;42.152;24.714;2022-10-16T13:29:54;5.20;;;3.15;;
7104;SDS011;3594;42.152;24.714;2022-10-16T13:32:27;5.85;;;3.42;;
7104;SDS011;3594;42.152;24.714;2022-10-16T13:34:53;5.78;;;3.40;;
7104;SDS011;3594;42.152;24.714;2022-10-16T13:37:20;6.80;;;3.38;;
7104;SDS011;3594;42.152;24.714;2022-10-16T13:39:47;3.90;;;3.03;;
7104;SDS011;3594;42.152;24.714;2022-10-16T13:42:14;4.55;;;3.05;;
7104;SDS011;3594;42.152;24.714;2022-10-16T13:44:47;4.80;;;3.15;;
7104;SDS011;3594;42.152;24.714;2022-10-16T13:47:25;5.65;;;3.45;;
7104;SDS011;3594;42.152;24.714;2022-10-16T13:50:12;4.30;;;3.08;;
7104;SDS011;3594;42.152;24.714;2022-10-16T13:52:39;7.85;;;3.03;;
7104;SDS011;3594;42.152;24.714;2022-10-16T13:55:13;5.20;;;3.40;;
7104;SDS011;3594;42.152;24.714;2022-10-16T13:57:41;4.85;;;3.13;;
7104;SDS011;3594;42.152;24.714;2022-10-16T14:00:23;4.93;;;3.08;;
7104;SDS011;3594;42.152;24.714;2022-10-16T14:03:05;4.18;;;2.90;;
7104;SDS011;3594;42.152;24.714;2022-10-16T14:05:32;6.07;;;3.60;;
7104;SDS011;3594;42.152;24.714;2022-10-16T14:07:59;5.18;;;3.38;;
7104;SDS011;3594;42.152;24.714;2022-10-16T14:10:25;5.63;;;3.15;;
7104;SDS011;3594;42.152;24.714;2022-10-16T14:13:01;4.63;;;2.95;;
7104;SDS011;3594;42.152;24.714;2022-10-16T14:15:30;6.70;;;3.17;;
7104;SDS011;3594;42.152;24.714;2022-10-16T14:17:57;5.18;;;3.40;;
7104;SDS011;3594;42.152;24.714;2022-10-16T14:20:24;6.47;;;3.85;;
7104;SDS011;3594;42.152;24.714;2022-10-16T14:23:02;4.18;;;3.05;;
7104;SDS011;3594;42.152;24.714;2022-10-16T14:25:31;4.20;;;3.00;;
7104;SDS011;3594;42.152;24.714;2022-10-16T14:30:23;4.10;;;3.10;;
7104;SDS011;3594;42.152;24.714;2022-10-16T14:32:53;4.47;;;2.92;;
7104;SDS011;3594;42.152;24.714;2022-10-16T14:35:33;5.50;;;3.42;;
7104;SDS011;3594;42.152;24.714;2022-10-16T14:38:02;5.43;;;3.05;;
7104;SDS011;3594;42.152;24.714;2022-10-16T14:40:30;4.78;;;3.10;;
7104;SDS011;3594;42.152;24.714;2022-10-16T14:42:57;5.82;;;3.08;;
7104;SDS011;3594;42.152;24.714;2022-10-16T14:45:25;5.70;;;3.28;;
7104;SDS011;3594;42.152;24.714;2022-10-16T14:47:54;3.63;;;2.72;;
7104;SDS011;3594;42.152;24.714;2022-10-16T14:50:22;4.85;;;3.22;;
7104;SDS011;3594;42.152;24.714;2022-10-16T14:52:47;4.97;;;3.20;;
7104;SDS011;3594;42.152;24.714;2022-10-16T14:55:13;6.47;;;3.53;;
7104;SDS011;3594;42.152;24.714;2022-10-16T14:57:38;6.00;;;2.95;;
7104;SDS011;3594;42.152;24.714;2022-10-16T15:00:09;5.63;;;3.00;;
7104;SDS011;3594;42.152;24.714;2022-10-16T15:02:40;6.15;;;3.53;;
7104;SDS011;3594;42.152;24.714;2022-10-16T15:07:50;4.68;;;3.13;;
7104;SDS011;3594;42.152;24.714;2022-10-16T15:10:16;7.10;;;3.40;;
7104;SDS011;3594;42.152;24.714;2022-10-16T15:12:42;4.80;;;3.22;;
7104;SDS011;3594;42.152;24.714;2022-10-16T15:15:53;5.63;;;3.15;;
7104;SDS011;3594;42.152;24.714;2022-10-16T15:18:02;3.78;;;2.90;;
7104;SDS011;3594;42.152;24.714;2022-10-16T15:20:33;4.75;;;3.35;;
7104;SDS011;3594;42.152;24.714;2022-10-16T15:23:01;4.90;;;2.80;;
7104;SDS011;3594;42.152;24.714;2022-10-16T15:27:57;6.55;;;3.80;;
7104;SDS011;3594;42.152;24.714;2022-10-16T15:30:22;4.85;;;3.13;;
7104;SDS011;3594;42.152;24.714;2022-10-16T15:32:48;5.07;;;3.70;;
7104;SDS011;3594;42.152;24.714;2022-10-16T15:35:13;6.80;;;3.70;;
7104;SDS011;3594;42.152;24.714;2022-10-16T15:37:39;5.30;;;3.20;;
7104;SDS011;3594;42.152;24.714;2022-10-16T15:40:04;6.07;;;3.83;;
7104;SDS011;3594;42.152;24.714;2022-10-16T15:42:30;7.00;;;3.58;;
7104;SDS011;3594;42.152;24.714;2022-10-16T15:44:55;5.13;;;3.38;;
7104;SDS011;3594;42.152;24.714;2022-10-16T15:47:21;5.32;;;3.05;;
7104;SDS011;3594;42.152;24.714;2022-10-16T15:49:47;4.43;;;3.05;;
7104;SDS011;3594;42.152;24.714;2022-10-16T15:52:12;5.93;;;3.15;;
7104;SDS011;3594;42.152;24.714;2022-10-16T15:54:37;6.53;;;2.92;;
7104;SDS011;3594;42.152;24.714;2022-10-16T15:57:03;6.32;;;3.42;;
7104;SDS011;3594;42.152;24.714;2022-10-16T15:59:28;6.50;;;3.33;;
7104;SDS011;3594;42.152;24.714;2022-10-16T16:01:54;5.53;;;3.45;;
7104;SDS011;3594;42.152;24.714;2022-10-16T16:04:19;7.15;;;3.50;;
7104;SDS011;3594;42.152;24.714;2022-10-16T16:06:44;5.72;;;3.22;;
7104;SDS011;3594;42.152;24.714;2022-10-16T16:09:11;5.70;;;3.05;;
7104;SDS011;3594;42.152;24.714;2022-10-16T16:11:37;7.78;;;3.80;;
7104;SDS011;3594;42.152;24.714;2022-10-16T16:14:04;3.75;;;2.83;;
7104;SDS011;3594;42.152;24.714;2022-10-16T16:16:36;6.95;;;3.38;;
7104;SDS011;3594;42.152;24.714;2022-10-16T16:19:06;9.07;;;4.03;;
7104;SDS011;3594;42.152;24.714;2022-10-16T16:21:32;5.95;;;3.33;;
7104;SDS011;3594;42.152;24.714;2022-10-16T16:23:59;7.57;;;3.72;;
7104;SDS011;3594;42.152;24.714;2022-10-16T16:26:25;6.45;;;3.28;;
7104;SDS011;3594;42.152;24.714;2022-10-16T16:28:53;7.95;;;3.95;;
7104;SDS011;3594;42.152;24.714;2022-10-16T16:31:20;6.97;;;3.85;;
7104;SDS011;3594;42.152;24.714;2022-10-16T16:33:49;5.43;;;3.30;;
7104;SDS011;3594;42.152;24.714;2022-10-16T16:36:16;9.52;;;3.70;;
7104;SDS011;3594;42.152;24.714;2022-10-16T16:38:43;5.82;;;3.80;;
7104;SDS011;3594;42.152;24.714;2022-10-16T16:41:17;6.97;;;3.92;;
7104;SDS011;3594;42.152;24.714;2022-10-16T16:43:47;6.05;;;3.80;;
7104;SDS011;3594;42.152;24.714;2022-10-16T16:46:14;7.28;;;4.07;;
7104;SDS011;3594;42.152;24.714;2022-10-16T16:48:40;6.85;;;3.67;;
7104;SDS011;3594;42.152;24.714;2022-10-16T16:51:07;7.80;;;3.97;;
7104;SDS011;3594;42.152;24.714;2022-10-16T16:53:35;5.40;;;3.60;;
7104;SDS011;3594;42.152;24.714;2022-10-16T16:56:05;8.52;;;4.40;;
7104;SDS011;3594;42.152;24.714;2022-10-16T16:58:31;7.97;;;3.75;;
7104;SDS011;3594;42.152;24.714;2022-10-16T17:00:57;5.43;;;3.47;;
7104;SDS011;3594;42.152;24.714;2022-10-16T17:03:31;5.70;;;3.30;;
7104;SDS011;3594;42.152;24.714;2022-10-16T17:05:59;9.52;;;3.80;;
7104;SDS011;3594;42.152;24.714;2022-10-16T17:08:30;5.00;;;3.45;;
7104;SDS011;3594;42.152;24.714;2022-10-16T17:10:56;4.53;;;3.05;;
7104;SDS011;3594;42.152;24.714;2022-10-16T17:13:23;5.93;;;3.65;;
7104;SDS011;3594;42.152;24.714;2022-10-16T17:15:50;7.50;;;4.00;;
7104;SDS011;3594;42.152;24.714;2022-10-16T17:18:17;7.13;;;3.42;;
7104;SDS011;3594;42.152;24.714;2022-10-16T17:20:43;4.47;;;3.30;;
7104;SDS011;3594;42.152;24.714;2022-10-16T17:23:09;4.60;;;3.47;;
7104;SDS011;3594;42.152;24.714;2022-10-16T17:25:36;8.02;;;3.88;;
7104;SDS011;3594;42.152;24.714;2022-10-16T17:28:02;6.80;;;3.92;;